sensor_id;sensor_type;location;lat;lon;timestamp;P1;durP1;ratioP1;P2;durP2;ratioP2
22240;SDS011;11289;52.524;13.694;2024-02-15T00:00:36;8.80;;;6.18;;
22240;SDS011;11289;52.524;13.694;2024-02-15T00:03:03;8.95;;;6.70;;
22240;SDS011;11289;52.524;13.694;2024-02-15T00:05:32;10.18;;;6.35;;
22240;SDS011;11289;52.524;13.694;2024-02-15T00:08:02;7.88;;;6.35;;
22240;SDS011;11289;52.524;13.694;2024-02-15T00:10:28;8.48;;;6.78;;
22240;SDS011;11289;52.524;13.694;2024-02-15T00:12:54;13.20;;;6.63;;
22240;SDS011;11289;52.524;13.694;2024-02-15T00:15:20;9.93;;;7.10;;
22240;SDS011;11289;52.524;13.694;2024-02-15T00:17:46;9.10;;;6.68;;
22240;SDS011;11289;52.524;13.694;2024-02-15T00:20:12;11.15;;;7.72;;
22240;SDS011;11289;52.524;13.694;2024-02-15T00:22:39;7.90;;;6.45;;
22240;SDS011;11289;52.524;13.694;2024-02-15T00:25:08;11.45;;;7.47;;
22240;SDS011;11289;52.524;13.694;2024-02-15T00:27:36;9.52;;;7.68;;
22240;SDS011;11289;52.524;13.694;2024-02-15T00:30:03;9.30;;;6.63;;
22240;SDS011;11289;52.524;13.694;2024-02-15T00:32:30;9.00;;;7.03;;
22240;SDS011;11289;52.524;13.694;2024-02-15T00:34:56;10.13;;;7.55;;
22240;SDS011;11289;52.524;13.694;2024-02-15T00:37:22;11.57;;;7.68;;
22240;SDS011;11289;52.524;13.694;2024-02-15T00:39:48;11.82;;;7.38;;
22240;SDS011;11289;52.524;13.694;2024-02-15T00:42:14;9.45;;;7.68;;
22240;SDS011;11289;52.524;13.694;2024-02-15T00:44:41;10.93;;;7.35;;
22240;SDS011;11289;52.524;13.694;2024-02-15T00:47:09;10.73;;;7.88;;
22240;SDS011;11289;52.524;13.694;2024-02-15T00:49:37;10.07;;;7.65;;
22240;SDS011;11289;52.524;13.694;2024-02-15T00:52:03;11.10;;;7.13;;
22240;SDS011;11289;52.524;13.694;2024-02-15T00:54:29;11.45;;;7.03;;
22240;SDS011;11289;52.524;13.694;2024-02-15T00:56:55;10.02;;;7.32;;
22240;SDS011;11289;52.524;13.694;2024-02-15T00:59:21;13.15;;;8.45;;
22240;SDS011;11289;52.524;13.694;2024-02-15T01:01:47;11.27;;;8.00;;
22240;SDS011;11289;52.524;13.694;2024-02-15T01:04:13;11.93;;;7.72;;
22240;SDS011;11289;52.524;13.694;2024-02-15T01:06:39;10.18;;;7.18;;
22240;SDS011;11289;52.524;13.694;2024-02-15T01:09:07;8.95;;;7.25;;
22240;SDS011;11289;52.524;13.694;2024-02-15T01:11:34;9.55;;;7.20;;
22240;SDS011;11289;52.524;13.694;2024-02-15T01:14:01;10.80;;;7.15;;
22240;SDS011;11289;52.524;13.694;2024-02-15T01:16:27;11.30;;;7.72;;
22240;SDS011;11289;52.524;13.694;2024-02-15T01:18:53;12.60;;;8.50;;
22240;SDS011;11289;52.524;13.694;2024-02-15T01:21:19;16.52;;;8.57;;
22240;SDS011;11289;52.524;13.694;2024-02-15T01:23:45;11.85;;;7.72;;
22240;SDS011;11289;52.524;13.694;2024-02-15T01:26:12;9.93;;;7.80;;
22240;SDS011;11289;52.524;13.694;2024-02-15T01:28:38;12.18;;;8.18;;
22240;SDS011;11289;52.524;13.694;2024-02-15T01:31:04;11.13;;;8.27;;
22240;SDS011;11289;52.524;13.694;2024-02-15T01:33:32;14.73;;;8.32;;
22240;SDS011;11289;52.524;13.694;2024-02-15T01:35:58;10.55;;;8.02;;
22240;SDS011;11289;52.524;13.694;2024-02-15T01:38:24;13.23;;;8.02;;
22240;SDS011;11289;52.524;13.694;2024-02-15T01:40:50;14.63;;;7.97;;
22240;SDS011;11289;52.524;13.694;2024-02-15T01:43:15;10.30;;;8.75;;
22240;SDS011;11289;52.524;13.694;2024-02-15T01:45:41;13.10;;;8.32;;
22240;SDS011;11289;52.524;13.694;2024-02-15T01:48:08;13.73;;;8.68;;
22240;SDS011;11289;52.524;13.694;2024-02-15T01:50:34;10.90;;;8.30;;
22240;SDS011;11289;52.524;13.694;2024-02-15T01:53:00;15.10;;;9.52;;
22240;SDS011;11289;52.524;13.694;2024-02-15T01:55:30;12.13;;;8.43;;
22240;SDS011;11289;52.524;13.694;2024-02-15T01:57:56;12.43;;;7.75;;
22240;SDS011;11289;52.524;13.694;2024-02-15T02:00:22;12.63;;;7.75;;
22240;SDS011;11289;52.524;13.694;2024-02-15T02:02:49;12.35;;;8.32;;
22240;SDS011;11289;52.524;13.694;2024-02-15T02:05:17;12.02;;;7.47;;
22240;SDS011;11289;52.524;13.694;2024-02-15T02:07:43;15.32;;;8.30;;
22240;SDS011;11289;52.524;13.694;2024-02-15T02:10:09;13.60;;;9.63;;
22240;SDS011;11289;52.524;13.694;2024-02-15T02:12:36;11.45;;;9.38;;
22240;SDS011;11289;52.524;13.694;2024-02-15T02:15:06;10.98;;;9.05;;
22240;SDS011;11289;52.524;13.694;2024-02-15T02:17:32;14.55;;;9.38;;
22240;SDS011;11289;52.524;13.694;2024-02-15T02:19:59;14.35;;;9.85;;
22240;SDS011;11289;52.524;13.694;2024-02-15T02:22:25;14.55;;;10.00;;
22240;SDS011;11289;52.524;13.694;2024-02-15T02:27:34;15.55;;;10.13;;
22240;SDS011;11289;52.524;13.694;2024-02-15T02:30:05;13.77;;;10.00;;
22240;SDS011;11289;52.524;13.694;2024-02-15T02:32:40;14.23;;;10.35;;
22240;SDS011;11289;52.524;13.694;2024-02-15T02:35:07;15.50;;;11.15;;
22240;SDS011;11289;52.524;13.694;2024-02-15T02:37:33;16.17;;;11.27;;
22240;SDS011;11289;52.524;13.694;2024-02-15T02:40:02;16.48;;;11.02;;
22240;SDS011;11289;52.524;13.694;2024-02-15T02:42:30;16.80;;;11.18;;
22240;SDS011;11289;52.524;13.694;2024-02-15T02:44:56;17.98;;;11.70;;
22240;SDS011;11289;52.524;13.694;2024-02-15T02:47:22;15.43;;;11.30;;
22240;SDS011;11289;52.524;13.694;2024-02-15T02:49:48;16.23;;;11.07;;
22240;SDS011;11289;52.524;13.694;2024-02-15T02:52:14;16.27;;;10.23;;
22240;SDS011;11289;52.524;13.694;2024-02-15T02:54:40;14.43;;;9.98;;
22240;SDS011;11289;52.524;13.694;2024-02-15T02:57:07;17.13;;;11.82;;
22240;SDS011;11289;52.524;13.694;2024-02-15T02:59:33;18.48;;;11.77;;
22240;SDS011;11289;52.524;13.694;2024-02-15T03:02:01;13.60;;;11.02;;
22240;SDS011;11289;52.524;13.694;2024-02-15T03:04:29;15.00;;;12.10;;
22240;SDS011;11289;52.524;13.694;2024-02-15T03:06:55;18.42;;;11.43;;
22240;SDS011;11289;52.524;13.694;2024-02-15T03:09:22;18.80;;;11.80;;
22240;SDS011;11289;52.524;13.694;2024-02-15T03:11:48;19.48;;;11.90;;
22240;SDS011;11289;52.524;13.694;2024-02-15T03:14:15;17.52;;;11.77;;
22240;SDS011;11289;52.524;13.694;2024-02-15T03:16:41;18.25;;;12.18;;
22240;SDS011;11289;52.524;13.694;2024-02-15T03:19:07;19.13;;;12.07;;
22240;SDS011;11289;52.524;13.694;2024-02-15T03:21:34;19.83;;;12.13;;
22240;SDS011;11289;52.524;13.694;2024-02-15T03:24:01;20.13;;;12.77;;
22240;SDS011;11289;52.524;13.694;2024-02-15T03:26:31;15.60;;;11.93;;
22240;SDS011;11289;52.524;13.694;2024-02-15T03:29:05;17.38;;;12.15;;
22240;SDS011;11289;52.524;13.694;2024-02-15T03:31:33;17.13;;;11.68;;
22240;SDS011;11289;52.524;13.694;2024-02-15T03:34:05;22.10;;;13.25;;
22240;SDS011;11289;52.524;13.694;2024-02-15T03:36:31;19.65;;;12.90;;
22240;SDS011;11289;52.524;13.694;2024-02-15T03:38:57;19.15;;;13.10;;
22240;SDS011;11289;52.524;13.694;2024-02-15T03:41:26;19.38;;;12.93;;
22240;SDS011;11289;52.524;13.694;2024-02-15T03:43:53;20.08;;;12.63;;
22240;SDS011;11289;52.524;13.694;2024-02-15T03:46:19;20.63;;;12.90;;
22240;SDS011;11289;52.524;13.694;2024-02-15T03:48:45;19.13;;;12.77;;
22240;SDS011;11289;52.524;13.694;2024-02-15T03:51:15;17.42;;;12.25;;
22240;SDS011;11289;52.524;13.694;2024-02-15T03:53:43;16.42;;;12.38;;
22240;SDS011;11289;52.524;13.694;2024-02-15T03:56:09;19.13;;;13.45;;
22240;SDS011;11289;52.524;13.694;2024-02-15T03:58:34;17.17;;;12.30;;
22240;SDS011;11289;52.524;13.694;2024-02-15T04:01:02;18.25;;;13.35;;
22240;SDS011;11289;52.524;13.694;2024-02-15T04:03:32;19.52;;;12.82;;
22240;SDS011;11289;52.524;13.694;2024-02-15T04:05:59;20.02;;;12.77;;
22240;SDS011;11289;52.524;13.694;2024-02-15T04:08:26;20.63;;;14.23;;
22240;SDS011;11289;52.524;13.694;2024-02-15T04:10:52;17.88;;;12.88;;
22240;SDS011;11289;52.524;13.694;2024-02-15T04:13:19;20.23;;;13.02;;
22240;SDS011;11289;52.524;13.694;2024-02-15T04:15:45;20.75;;;12.88;;
22240;SDS011;11289;52.524;13.694;2024-02-15T04:18:13;25.45;;;12.77;;
22240;SDS011;11289;52.524;13.694;2024-02-15T04:20:39;21.95;;;12.38;;
22240;SDS011;11289;52.524;13.694;2024-02-15T04:23:11;16.60;;;11.35;;
22240;SDS011;11289;52.524;13.694;2024-02-15T04:25:37;18.27;;;12.00;;
22240;SDS011;11289;52.524;13.694;2024-02-15T04:28:04;16.23;;;11.82;;
22240;SDS011;11289;52.524;13.694;2024-02-15T04:30:30;19.50;;;11.15;;
22240;SDS011;11289;52.524;13.694;2024-02-15T04:32:56;18.10;;;11.38;;
22240;SDS011;11289;52.524;13.694;2024-02-15T04:35:22;18.90;;;11.63;;
22240;SDS011;11289;52.524;13.694;2024-02-15T04:37:48;17.70;;;12.10;;
22240;SDS011;11289;52.524;13.694;2024-02-15T04:40:17;16.38;;;11.82;;
22240;SDS011;11289;52.524;13.694;2024-02-15T04:42:43;17.67;;;11.65;;
22240;SDS011;11289;52.524;13.694;2024-02-15T04:45:12;20.80;;;12.45;;
22240;SDS011;11289;52.524;13.694;2024-02-15T04:47:41;16.17;;;11.27;;
22240;SDS011;11289;52.524;13.694;2024-02-15T04:50:07;16.35;;;11.07;;
22240;SDS011;11289;52.524;13.694;2024-02-15T04:52:34;15.07;;;10.30;;
22240;SDS011;11289;52.524;13.694;2024-02-15T04:55:01;20.35;;;11.65;;
22240;SDS011;11289;52.524;13.694;2024-02-15T04:57:30;17.42;;;11.68;;
22240;SDS011;11289;52.524;13.694;2024-02-15T04:59:56;18.92;;;12.02;;
22240;SDS011;11289;52.524;13.694;2024-02-15T05:02:22;22.30;;;11.50;;
22240;SDS011;11289;52.524;13.694;2024-02-15T05:04:50;19.33;;;11.82;;
22240;SDS011;11289;52.524;13.694;2024-02-15T05:07:21;17.63;;;11.77;;
22240;SDS011;11289;52.524;13.694;2024-02-15T05:09:48;20.55;;;12.45;;
22240;SDS011;11289;52.524;13.694;2024-02-15T05:12:21;19.38;;;12.93;;
22240;SDS011;11289;52.524;13.694;2024-02-15T05:14:49;20.60;;;12.23;;
22240;SDS011;11289;52.524;13.694;2024-02-15T05:17:19;22.67;;;12.38;;
22240;SDS011;11289;52.524;13.694;2024-02-15T05:19:45;17.40;;;12.77;;
22240;SDS011;11289;52.524;13.694;2024-02-15T05:22:11;24.55;;;13.40;;
22240;SDS011;11289;52.524;13.694;2024-02-15T05:24:37;21.83;;;12.82;;
22240;SDS011;11289;52.524;13.694;2024-02-15T05:27:04;23.70;;;14.18;;
22240;SDS011;11289;52.524;13.694;2024-02-15T05:29:31;21.95;;;13.27;;
22240;SDS011;11289;52.524;13.694;2024-02-15T05:32:01;22.27;;;13.20;;
22240;SDS011;11289;52.524;13.694;2024-02-15T05:34:27;23.40;;;12.05;;
22240;SDS011;11289;52.524;13.694;2024-02-15T05:36:56;22.25;;;13.40;;
22240;SDS011;11289;52.524;13.694;2024-02-15T05:39:22;19.77;;;13.05;;
22240;SDS011;11289;52.524;13.694;2024-02-15T05:41:48;22.63;;;13.55;;
22240;SDS011;11289;52.524;13.694;2024-02-15T05:44:14;23.58;;;14.15;;
22240;SDS011;11289;52.524;13.694;2024-02-15T05:46:44;25.58;;;13.40;;
22240;SDS011;11289;52.524;13.694;2024-02-15T05:49:11;24.45;;;14.52;;
22240;SDS011;11289;52.524;13.694;2024-02-15T05:51:41;28.80;;;14.93;;
22240;SDS011;11289;52.524;13.694;2024-02-15T05:54:07;26.10;;;14.43;;
22240;SDS011;11289;52.524;13.694;2024-02-15T05:56:33;24.85;;;14.40;;
22240;SDS011;11289;52.524;13.694;2024-02-15T05:58:59;26.13;;;15.20;;
22240;SDS011;11289;52.524;13.694;2024-02-15T06:01:27;27.58;;;14.77;;
22240;SDS011;11289;52.524;13.694;2024-02-15T06:03:55;26.45;;;14.90;;
22240;SDS011;11289;52.524;13.694;2024-02-15T06:06:21;25.58;;;14.32;;
22240;SDS011;11289;52.524;13.694;2024-02-15T06:08:48;23.42;;;14.35;;
22240;SDS011;11289;52.524;13.694;2024-02-15T06:11:18;22.45;;;13.43;;
22240;SDS011;11289;52.524;13.694;2024-02-15T06:13:45;26.38;;;14.55;;
22240;SDS011;11289;52.524;13.694;2024-02-15T06:16:11;26.98;;;14.70;;
22240;SDS011;11289;52.524;13.694;2024-02-15T06:18:37;24.67;;;15.13;;
22240;SDS011;11289;52.524;13.694;2024-02-15T06:21:03;25.17;;;15.18;;
22240;SDS011;11289;52.524;13.694;2024-02-15T06:23:30;24.77;;;15.57;;
22240;SDS011;11289;52.524;13.694;2024-02-15T06:25:56;27.98;;;15.10;;
22240;SDS011;11289;52.524;13.694;2024-02-15T06:28:28;26.27;;;13.73;;
22240;SDS011;11289;52.524;13.694;2024-02-15T06:31:13;25.98;;;14.50;;
22240;SDS011;11289;52.524;13.694;2024-02-15T06:33:58;25.40;;;14.50;;
22240;SDS011;11289;52.524;13.694;2024-02-15T06:36:46;28.23;;;15.18;;
22240;SDS011;11289;52.524;13.694;2024-02-15T06:39:34;25.35;;;14.32;;
22240;SDS011;11289;52.524;13.694;2024-02-15T06:42:13;23.48;;;14.20;;
22240;SDS011;11289;52.524;13.694;2024-02-15T06:44:42;22.83;;;14.77;;
22240;SDS011;11289;52.524;13.694;2024-02-15T06:47:09;26.02;;;14.63;;
22240;SDS011;11289;52.524;13.694;2024-02-15T06:49:36;26.70;;;15.15;;
22240;SDS011;11289;52.524;13.694;2024-02-15T06:52:08;25.20;;;14.75;;
22240;SDS011;11289;52.524;13.694;2024-02-15T06:54:38;29.73;;;13.40;;
22240;SDS011;11289;52.524;13.694;2024-02-15T06:57:05;23.95;;;12.98;;
22240;SDS011;11289;52.524;13.694;2024-02-15T06:59:31;25.05;;;14.95;;
22240;SDS011;11289;52.524;13.694;2024-02-15T07:02:01;26.33;;;14.48;;
22240;SDS011;11289;52.524;13.694;2024-02-15T07:04:30;26.05;;;15.07;;
22240;SDS011;11289;52.524;13.694;2024-02-15T07:06:57;23.33;;;14.02;;
22240;SDS011;11289;52.524;13.694;2024-02-15T07:09:25;24.52;;;13.38;;
22240;SDS011;11289;52.524;13.694;2024-02-15T07:11:51;24.30;;;13.77;;
22240;SDS011;11289;52.524;13.694;2024-02-15T07:14:17;24.83;;;13.45;;
22240;SDS011;11289;52.524;13.694;2024-02-15T07:16:44;20.58;;;13.35;;
22240;SDS011;11289;52.524;13.694;2024-02-15T07:19:13;24.73;;;15.23;;
22240;SDS011;11289;52.524;13.694;2024-02-15T07:21:41;27.80;;;14.25;;
22240;SDS011;11289;52.524;13.694;2024-02-15T07:24:07;30.13;;;15.32;;
22240;SDS011;11289;52.524;13.694;2024-02-15T07:26:35;27.48;;;15.05;;
22240;SDS011;11289;52.524;13.694;2024-02-15T07:29:02;25.90;;;14.95;;
22240;SDS011;11289;52.524;13.694;2024-02-15T07:31:31;25.42;;;14.50;;
22240;SDS011;11289;52.524;13.694;2024-02-15T07:33:58;26.08;;;14.20;;
22240;SDS011;11289;52.524;13.694;2024-02-15T07:36:25;23.63;;;14.27;;
22240;SDS011;11289;52.524;13.694;2024-02-15T07:38:53;25.52;;;14.23;;
22240;SDS011;11289;52.524;13.694;2024-02-15T07:41:23;24.13;;;14.23;;
22240;SDS011;11289;52.524;13.694;2024-02-15T07:43:49;26.73;;;14.07;;
22240;SDS011;11289;52.524;13.694;2024-02-15T07:46:16;27.02;;;15.43;;
22240;SDS011;11289;52.524;13.694;2024-02-15T07:48:42;23.15;;;14.57;;
22240;SDS011;11289;52.524;13.694;2024-02-15T07:51:15;25.08;;;13.98;;
22240;SDS011;11289;52.524;13.694;2024-02-15T07:53:42;24.77;;;13.63;;
22240;SDS011;11289;52.524;13.694;2024-02-15T07:56:11;25.52;;;13.93;;
22240;SDS011;11289;52.524;13.694;2024-02-15T07:58:39;21.30;;;13.07;;
22240;SDS011;11289;52.524;13.694;2024-02-15T08:03:39;25.08;;;12.32;;
22240;SDS011;11289;52.524;13.694;2024-02-15T08:06:12;21.60;;;12.63;;
22240;SDS011;11289;52.524;13.694;2024-02-15T08:08:40;23.38;;;13.60;;
22240;SDS011;11289;52.524;13.694;2024-02-15T08:11:11;22.35;;;12.32;;
22240;SDS011;11289;52.524;13.694;2024-02-15T08:13:49;22.15;;;12.55;;
22240;SDS011;11289;52.524;13.694;2024-02-15T08:16:20;22.63;;;13.07;;
22240;SDS011;11289;52.524;13.694;2024-02-15T08:18:52;26.48;;;13.00;;
22240;SDS011;11289;52.524;13.694;2024-02-15T08:24:04;22.38;;;12.68;;
22240;SDS011;11289;52.524;13.694;2024-02-15T08:29:09;22.92;;;13.68;;
22240;SDS011;11289;52.524;13.694;2024-02-15T08:31:35;23.77;;;14.75;;
22240;SDS011;11289;52.524;13.694;2024-02-15T08:34:04;28.00;;;15.20;;
22240;SDS011;11289;52.524;13.694;2024-02-15T08:36:31;23.17;;;14.30;;
22240;SDS011;11289;52.524;13.694;2024-02-15T08:38:57;26.05;;;14.65;;
22240;SDS011;11289;52.524;13.694;2024-02-15T08:41:23;22.10;;;14.13;;
22240;SDS011;11289;52.524;13.694;2024-02-15T08:43:52;20.58;;;12.70;;
22240;SDS011;11289;52.524;13.694;2024-02-15T08:46:19;21.50;;;12.77;;
22240;SDS011;11289;52.524;13.694;2024-02-15T08:48:47;24.25;;;12.70;;
22240;SDS011;11289;52.524;13.694;2024-02-15T08:51:13;22.42;;;13.23;;
22240;SDS011;11289;52.524;13.694;2024-02-15T08:53:39;23.23;;;13.68;;
22240;SDS011;11289;52.524;13.694;2024-02-15T08:56:05;29.48;;;15.23;;
22240;SDS011;11289;52.524;13.694;2024-02-15T08:58:31;22.15;;;12.82;;
22240;SDS011;11289;52.524;13.694;2024-02-15T09:00:57;22.23;;;12.88;;
22240;SDS011;11289;52.524;13.694;2024-02-15T09:03:24;25.55;;;13.20;;
22240;SDS011;11289;52.524;13.694;2024-02-15T09:05:50;21.92;;;12.13;;
22240;SDS011;11289;52.524;13.694;2024-02-15T09:08:16;25.08;;;15.40;;
22240;SDS011;11289;52.524;13.694;2024-02-15T09:10:49;21.77;;;12.63;;
22240;SDS011;11289;52.524;13.694;2024-02-15T09:13:15;27.80;;;16.60;;
22240;SDS011;11289;52.524;13.694;2024-02-15T09:15:41;25.55;;;15.70;;
22240;SDS011;11289;52.524;13.694;2024-02-15T09:18:07;26.73;;;16.13;;
22240;SDS011;11289;52.524;13.694;2024-02-15T09:20:35;23.98;;;13.13;;
22240;SDS011;11289;52.524;13.694;2024-02-15T09:23:03;21.65;;;12.65;;
22240;SDS011;11289;52.524;13.694;2024-02-15T09:25:37;20.20;;;11.43;;
22240;SDS011;11289;52.524;13.694;2024-02-15T09:28:03;19.95;;;11.45;;
22240;SDS011;11289;52.524;13.694;2024-02-15T09:30:29;18.52;;;11.80;;
22240;SDS011;11289;52.524;13.694;2024-02-15T09:32:57;20.25;;;11.35;;
22240;SDS011;11289;52.524;13.694;2024-02-15T09:35:23;20.10;;;11.18;;
22240;SDS011;11289;52.524;13.694;2024-02-15T09:37:49;17.23;;;10.38;;
22240;SDS011;11289;52.524;13.694;2024-02-15T09:40:16;19.88;;;10.98;;
22240;SDS011;11289;52.524;13.694;2024-02-15T09:42:43;16.92;;;10.63;;
22240;SDS011;11289;52.524;13.694;2024-02-15T09:45:14;18.42;;;10.70;;
22240;SDS011;11289;52.524;13.694;2024-02-15T09:47:43;17.77;;;9.55;;
22240;SDS011;11289;52.524;13.694;2024-02-15T09:50:11;19.60;;;10.75;;
22240;SDS011;11289;52.524;13.694;2024-02-15T09:52:39;22.05;;;13.73;;
22240;SDS011;11289;52.524;13.694;2024-02-15T09:55:09;20.63;;;12.18;;
22240;SDS011;11289;52.524;13.694;2024-02-15T09:57:39;16.85;;;10.27;;
22240;SDS011;11289;52.524;13.694;2024-02-15T10:00:08;18.02;;;10.93;;
22240;SDS011;11289;52.524;13.694;2024-02-15T10:02:39;18.45;;;11.07;;
22240;SDS011;11289;52.524;13.694;2024-02-15T10:05:06;15.35;;;10.10;;
22240;SDS011;11289;52.524;13.694;2024-02-15T10:07:38;15.75;;;9.18;;
22240;SDS011;11289;52.524;13.694;2024-02-15T10:10:16;16.38;;;9.85;;
22240;SDS011;11289;52.524;13.694;2024-02-15T10:12:49;15.45;;;9.68;;
22240;SDS011;11289;52.524;13.694;2024-02-15T10:17:57;17.08;;;9.95;;
22240;SDS011;11289;52.524;13.694;2024-02-15T10:20:24;18.33;;;10.18;;
22240;SDS011;11289;52.524;13.694;2024-02-15T10:22:58;14.95;;;8.65;;
22240;SDS011;11289;52.524;13.694;2024-02-15T10:25:35;16.80;;;9.40;;
22240;SDS011;11289;52.524;13.694;2024-02-15T10:28:02;17.35;;;9.85;;
22240;SDS011;11289;52.524;13.694;2024-02-15T10:30:33;15.95;;;8.93;;
22240;SDS011;11289;52.524;13.694;2024-02-15T10:33:03;12.68;;;9.27;;
22240;SDS011;11289;52.524;13.694;2024-02-15T10:35:30;13.93;;;9.70;;
22240;SDS011;11289;52.524;13.694;2024-02-15T10:38:06;16.15;;;9.93;;
22240;SDS011;11289;52.524;13.694;2024-02-15T10:40:33;16.38;;;9.60;;
22240;SDS011;11289;52.524;13.694;2024-02-15T10:42:59;15.65;;;9.25;;
22240;SDS011;11289;52.524;13.694;2024-02-15T10:45:29;17.40;;;9.35;;
22240;SDS011;11289;52.524;13.694;2024-02-15T10:47:56;14.65;;;8.38;;
22240;SDS011;11289;52.524;13.694;2024-02-15T10:50:23;13.35;;;8.30;;
22240;SDS011;11289;52.524;13.694;2024-02-15T10:52:56;14.35;;;8.98;;
22240;SDS011;11289;52.524;13.694;2024-02-15T10:58:30;14.70;;;8.35;;
22240;SDS011;11289;52.524;13.694;2024-02-15T11:01:05;12.68;;;8.40;;
22240;SDS011;11289;52.524;13.694;2024-02-15T11:03:39;14.77;;;8.27;;
22240;SDS011;11289;52.524;13.694;2024-02-15T11:06:13;17.50;;;10.30;;
22240;SDS011;11289;52.524;13.694;2024-02-15T11:08:41;14.07;;;9.32;;
22240;SDS011;11289;52.524;13.694;2024-02-15T11:11:10;14.40;;;8.52;;
22240;SDS011;11289;52.524;13.694;2024-02-15T11:13:40;14.52;;;8.07;;
22240;SDS011;11289;52.524;13.694;2024-02-15T11:16:08;11.73;;;7.97;;
22240;SDS011;11289;52.524;13.694;2024-02-15T11:18:44;13.20;;;8.20;;
22240;SDS011;11289;52.524;13.694;2024-02-15T11:21:15;13.35;;;8.90;;
22240;SDS011;11289;52.524;13.694;2024-02-15T11:23:41;11.20;;;7.45;;
22240;SDS011;11289;52.524;13.694;2024-02-15T11:26:08;11.45;;;7.65;;
22240;SDS011;11289;52.524;13.694;2024-02-15T11:28:35;10.45;;;7.55;;
22240;SDS011;11289;52.524;13.694;2024-02-15T11:31:02;13.05;;;7.50;;
22240;SDS011;11289;52.524;13.694;2024-02-15T11:33:32;12.20;;;8.15;;
22240;SDS011;11289;52.524;13.694;2024-02-15T11:36:09;11.10;;;7.65;;
22240;SDS011;11289;52.524;13.694;2024-02-15T11:38:37;10.00;;;7.20;;
22240;SDS011;11289;52.524;13.694;2024-02-15T11:41:11;13.38;;;7.53;;
22240;SDS011;11289;52.524;13.694;2024-02-15T11:46:17;10.40;;;7.38;;
22240;SDS011;11289;52.524;13.694;2024-02-15T11:48:48;11.18;;;6.80;;
22240;SDS011;11289;52.524;13.694;2024-02-15T11:54:12;10.73;;;6.65;;
22240;SDS011;11289;52.524;13.694;2024-02-15T11:59:13;9.50;;;7.32;;
22240;SDS011;11289;52.524;13.694;2024-02-15T12:01:57;9.40;;;6.82;;
22240;SDS011;11289;52.524;13.694;2024-02-15T12:04:43;9.98;;;6.60;;
22240;SDS011;11289;52.524;13.694;2024-02-15T12:07:30;9.30;;;5.72;;
22240;SDS011;11289;52.524;13.694;2024-02-15T12:10:18;9.05;;;6.32;;
22240;SDS011;11289;52.524;13.694;2024-02-15T12:13:03;8.98;;;6.00;;
22240;SDS011;11289;52.524;13.694;2024-02-15T12:15:59;8.50;;;5.70;;
22240;SDS011;11289;52.524;13.694;2024-02-15T12:18:44;7.05;;;5.20;;
22240;SDS011;11289;52.524;13.694;2024-02-15T12:21:14;6.72;;;5.22;;
22240;SDS011;11289;52.524;13.694;2024-02-15T12:23:44;9.48;;;5.75;;
22240;SDS011;11289;52.524;13.694;2024-02-15T12:26:11;13.52;;;6.32;;
22240;SDS011;11289;52.524;13.694;2024-02-15T12:28:40;18.30;;;11.05;;
22240;SDS011;11289;52.524;13.694;2024-02-15T12:31:08;12.75;;;8.00;;
22240;SDS011;11289;52.524;13.694;2024-02-15T12:33:35;12.93;;;7.53;;
22240;SDS011;11289;52.524;13.694;2024-02-15T12:36:06;8.45;;;5.97;;
22240;SDS011;11289;52.524;13.694;2024-02-15T12:38:33;7.93;;;5.20;;
22240;SDS011;11289;52.524;13.694;2024-02-15T12:41:24;6.97;;;4.90;;
22240;SDS011;11289;52.524;13.694;2024-02-15T12:43:52;8.05;;;4.50;;
22240;SDS011;11289;52.524;13.694;2024-02-15T12:46:19;6.82;;;5.18;;
22240;SDS011;11289;52.524;13.694;2024-02-15T12:48:45;10.75;;;5.32;;
22240;SDS011;11289;52.524;13.694;2024-02-15T12:51:15;8.48;;;5.30;;
22240;SDS011;11289;52.524;13.694;2024-02-15T12:53:41;6.57;;;4.50;;
22240;SDS011;11289;52.524;13.694;2024-02-15T12:56:08;9.70;;;4.68;;
22240;SDS011;11289;52.524;13.694;2024-02-15T12:58:37;6.57;;;4.43;;
22240;SDS011;11289;52.524;13.694;2024-02-15T13:01:04;6.75;;;4.18;;
22240;SDS011;11289;52.524;13.694;2024-02-15T13:03:30;6.38;;;4.63;;
22240;SDS011;11289;52.524;13.694;2024-02-15T13:05:56;7.47;;;4.65;;
22240;SDS011;11289;52.524;13.694;2024-02-15T13:08:22;9.80;;;4.97;;
22240;SDS011;11289;52.524;13.694;2024-02-15T13:10:48;9.25;;;5.82;;
22240;SDS011;11289;52.524;13.694;2024-02-15T13:13:16;7.30;;;5.40;;
22240;SDS011;11289;52.524;13.694;2024-02-15T13:15:42;5.10;;;4.13;;
22240;SDS011;11289;52.524;13.694;2024-02-15T13:18:09;7.55;;;4.60;;
22240;SDS011;11289;52.524;13.694;2024-02-15T13:20:36;7.07;;;4.53;;
22240;SDS011;11289;52.524;13.694;2024-02-15T13:23:04;5.72;;;3.95;;
22240;SDS011;11289;52.524;13.694;2024-02-15T13:25:34;7.05;;;5.00;;
22240;SDS011;11289;52.524;13.694;2024-02-15T13:28:02;5.80;;;3.67;;
22240;SDS011;11289;52.524;13.694;2024-02-15T13:30:31;5.50;;;3.75;;
22240;SDS011;11289;52.524;13.694;2024-02-15T13:32:58;5.20;;;4.15;;
22240;SDS011;11289;52.524;13.694;2024-02-15T13:35:24;6.25;;;4.63;;
22240;SDS011;11289;52.524;13.694;2024-02-15T13:37:51;5.70;;;3.72;;
22240;SDS011;11289;52.524;13.694;2024-02-15T13:40:19;5.35;;;3.70;;
22240;SDS011;11289;52.524;13.694;2024-02-15T13:42:49;4.75;;;3.33;;
22240;SDS011;11289;52.524;13.694;2024-02-15T13:45:19;4.68;;;3.30;;
22240;SDS011;11289;52.524;13.694;2024-02-15T13:47:48;3.92;;;3.00;;
22240;SDS011;11289;52.524;13.694;2024-02-15T13:50:19;3.83;;;2.63;;
22240;SDS011;11289;52.524;13.694;2024-02-15T13:52:45;3.03;;;2.45;;
22240;SDS011;11289;52.524;13.694;2024-02-15T13:55:12;4.00;;;2.15;;
22240;SDS011;11289;52.524;13.694;2024-02-15T13:57:43;3.35;;;2.20;;
22240;SDS011;11289;52.524;13.694;2024-02-15T14:00:10;2.80;;;2.45;;
22240;SDS011;11289;52.524;13.694;2024-02-15T14:02:47;3.13;;;2.00;;
22240;SDS011;11289;52.524;13.694;2024-02-15T14:05:19;4.60;;;2.30;;
22240;SDS011;11289;52.524;13.694;2024-02-15T14:07:50;2.10;;;1.90;;
22240;SDS011;11289;52.524;13.694;2024-02-15T14:10:18;4.80;;;2.10;;
22240;SDS011;11289;52.524;13.694;2024-02-15T14:12:45;3.75;;;2.65;;
22240;SDS011;11289;52.524;13.694;2024-02-15T14:15:11;6.47;;;3.40;;
22240;SDS011;11289;52.524;13.694;2024-02-15T14:17:37;6.28;;;2.20;;
22240;SDS011;11289;52.524;13.694;2024-02-15T14:20:04;3.42;;;1.77;;
22240;SDS011;11289;52.524;13.694;2024-02-15T14:22:34;4.65;;;1.50;;
22240;SDS011;11289;52.524;13.694;2024-02-15T14:25:01;6.72;;;1.40;;
22240;SDS011;11289;52.524;13.694;2024-02-15T14:27:27;2.00;;;1.65;;
22240;SDS011;11289;52.524;13.694;2024-02-15T14:29:53;4.78;;;1.40;;
22240;SDS011;11289;52.524;13.694;2024-02-15T14:32:37;2.53;;;1.30;;
22240;SDS011;11289;52.524;13.694;2024-02-15T14:35:21;2.10;;;1.40;;
22240;SDS011;11289;52.524;13.694;2024-02-15T14:37:47;2.55;;;1.20;;
22240;SDS011;11289;52.524;13.694;2024-02-15T14:40:13;1.88;;;1.15;;
22240;SDS011;11289;52.524;13.694;2024-02-15T14:42:42;2.95;;;1.33;;
22240;SDS011;11289;52.524;13.694;2024-02-15T14:45:09;3.15;;;1.10;;
22240;SDS011;11289;52.524;13.694;2024-02-15T14:47:37;2.00;;;1.50;;
22240;SDS011;11289;52.524;13.694;2024-02-15T14:50:06;1.98;;;1.48;;